Time;durP1;ratioP1;P1;durP2;ratioP2;P2;SDS_P1;SDS_P2;PMS_P1;PMS_P2;Temp;Humidity;BMP_temperature;BMP_pressure;BME280_temperature;BME280_humidity;BME280_pressure;Samples;Min_cycle;Max_cycle;Signal;HPM_P1;HPM_P2
2022/10/07 00:00:28;;;;;;;6.93;2.63;;;;;;;8.69;100.00;100322.75;5113898;27;20202;-79
2022/10/07 00:02:57;;;;;;;7.17;2.37;;;;;;;8.81;100.00;100322.28;5111011;28;20256;-79
2022/10/07 00:05:25;;;;;;;10.47;2.53;;;;;;;8.88;100.00;100318.50;5115905;27;20191;-79
2022/10/07 00:07:55;;;;;;;9.23;2.00;;;;;;;8.72;100.00;100315.56;5107075;28;20219;-79
2022/10/07 00:10:25;;;;;;;5.70;1.97;;;;;;;8.53;100.00;100317.16;5109292;28;20191;-79
2022/10/07 00:12:55;;;;;;;10.00;2.07;;;;;;;8.51;100.00;100319.88;5095865;28;20183;-79
2022/10/07 00:15:28;;;;;;;7.00;2.00;;;;;;;8.45;100.00;100322.72;5098507;28;20187;-79
2022/10/07 00:17:58;;;;;;;6.33;2.27;;;;;;;8.52;100.00;100321.59;5115287;28;20191;-79
2022/10/07 00:20:27;;;;;;;5.37;2.00;;;;;;;8.22;100.00;100317.38;5114639;27;20199;-79
2022/10/07 00:22:55;;;;;;;3.63;2.00;;;;;;;8.19;100.00;100320.97;5111079;28;20199;-79
2022/10/07 00:25:25;;;;;;;5.13;2.00;;;;;;;8.39;100.00;100311.50;5107367;28;20240;-79
2022/10/07 00:27:55;;;;;;;7.10;2.17;;;;;;;8.44;100.00;100306.94;5113984;28;20207;-79
2022/10/07 00:30:23;;;;;;;6.20;2.33;;;;;;;8.50;100.00;100304.94;5110479;28;20221;-79
2022/10/07 00:32:54;;;;;;;9.17;2.27;;;;;;;8.57;100.00;100300.28;5075990;28;20255;-79
2022/10/07 00:35:23;;;;;;;6.37;2.27;;;;;;;8.46;100.00;100291.91;5114465;28;20210;-79
2022/10/07 00:37:52;;;;;;;8.57;2.83;;;;;;;8.39;100.00;100285.97;5113301;28;20713;-79
2022/10/07 00:40:20;;;;;;;5.47;2.40;;;;;;;8.41;100.00;100291.22;5112219;28;20220;-79
2022/10/07 00:42:50;;;;;;;5.03;2.47;;;;;;;8.31;100.00;100285.38;5107065;28;20226;-79
2022/10/07 00:45:20;;;;;;;6.13;2.30;;;;;;;8.36;100.00;100288.72;5113704;28;20244;-79
2022/10/07 00:47:50;;;;;;;7.43;2.30;;;;;;;8.32;100.00;100287.97;5113734;28;20190;-79
2022/10/07 00:50:28;;;;;;;5.80;1.87;;;;;;;8.36;100.00;100279.94;5114097;28;20201;-80
2022/10/07 00:53:00;;;;;;;6.53;2.53;;;;;;;8.18;100.00;100277.03;5050314;28;20242;-79
2022/10/07 00:55:30;;;;;;;7.07;2.40;;;;;;;8.23;100.00;100280.38;5039372;28;20197;-79
2022/10/07 00:58:03;;;;;;;7.73;2.30;;;;;;;8.33;100.00;100278.25;5051133;28;20634;-78
2022/10/07 01:00:32;;;;;;;7.57;2.13;;;;;;;8.22;100.00;100272.53;5051553;28;20239;-79
2022/10/07 01:03:00;;;;;;;5.70;2.07;;;;;;;8.06;100.00;100264.28;5047099;28;20303;-79
2022/10/07 01:05:31;;;;;;;7.70;2.70;;;;;;;8.07;100.00;100271.28;5049648;28;20201;-79
2022/10/07 01:08:00;;;;;;;6.83;2.10;;;;;;;8.01;100.00;100268.88;5051473;28;20700;-79
2022/10/07 01:10:37;;;;;;;4.03;2.53;;;;;;;7.90;100.00;100255.19;5043867;28;20239;-79
2022/10/07 01:13:14;;;;;;;7.93;2.20;;;;;;;7.83;100.00;100258.97;5045935;28;20246;-79
2022/10/07 01:15:52;;;;;;;4.73;2.47;;;;;;;7.92;100.00;100264.78;5047982;28;20200;-79
2022/10/07 01:18:27;;;;;;;5.70;2.07;;;;;;;8.07;100.00;100259.88;5101553;28;20254;-79
2022/10/07 01:21:01;;;;;;;5.87;2.10;;;;;;;7.88;100.00;100249.97;5110780;28;20194;-79
2022/10/07 01:23:45;;;;;;;5.80;2.17;;;;;;;8.06;100.00;100248.44;5113845;27;20191;-80
2022/10/07 01:26:50;;;;;;;9.23;3.10;;;;;;;8.01;100.00;100242.50;5111725;28;20183;-80
2022/10/07 01:29:23;;;;;;;8.50;3.20;;;;;;;7.87;100.00;100235.06;5111581;28;20211;-79
2022/10/07 01:31:56;;;;;;;8.17;3.27;;;;;;;7.89;100.00;100240.28;5105849;28;20227;-79
2022/10/07 01:34:26;;;;;;;5.03;2.57;;;;;;;7.99;100.00;100242.53;5110475;28;20199;-79
2022/10/07 01:36:58;;;;;;;6.97;2.57;;;;;;;7.97;100.00;100231.16;5110009;28;20225;-80
2022/10/07 01:39:31;;;;;;;3.27;1.97;;;;;;;7.79;100.00;100229.19;5111962;28;20212;-79
2022/10/07 01:42:02;;;;;;;6.17;2.07;;;;;;;7.74;100.00;100225.88;5110970;28;20215;-80
2022/10/07 01:44:31;;;;;;;6.57;1.97;;;;;;;7.69;100.00;100219.88;5110522;28;20218;-80
2022/10/07 01:47:00;;;;;;;5.40;2.27;;;;;;;7.68;100.00;100215.53;5110725;28;20244;-80
2022/10/07 01:49:29;;;;;;;3.23;1.93;;;;;;;7.69;100.00;100226.00;5109023;28;20288;-80
2022/10/07 01:52:23;;;;;;;5.40;2.37;;;;;;;7.60;100.00;100220.19;5115671;28;20230;-80
2022/10/07 01:55:10;;;;;;;6.40;2.10;;;;;;;7.60;100.00;100218.44;5113207;28;20233;-79
2022/10/07 01:57:51;;;;;;;5.63;2.20;;;;;;;7.60;100.00;100215.78;5115288;28;20195;-79
2022/10/07 02:00:20;;;;;;;4.07;1.67;;;;;;;7.54;100.00;100205.47;5116196;27;20240;-80
2022/10/07 02:03:04;;;;;;;6.50;2.33;;;;;;;7.53;100.00;100210.78;5116292;28;20193;-79
2022/10/07 02:05:45;;;;;;;3.90;1.87;;;;;;;7.49;100.00;100199.47;5114606;28;20703;-79
2022/10/07 02:08:26;;;;;;;4.60;2.00;;;;;;;7.66;100.00;100188.34;5115984;28;20186;-79
2022/10/07 02:11:08;;;;;;;7.67;2.00;;;;;;;7.51;100.00;100197.66;5112964;28;20202;-80
2022/10/07 02:13:47;;;;;;;4.30;1.97;;;;;;;7.51;100.00;100189.75;5129438;27;20190;-79
2022/10/07 02:16:19;;;;;;;2.30;1.70;;;;;;;7.51;100.00;100188.88;5129483;27;20186;-79
2022/10/07 02:18:50;;;;;;;4.10;1.90;;;;;;;7.46;100.00;100184.66;5134835;27;20192;-79
2022/10/07 02:21:27;;;;;;;5.43;2.20;;;;;;;7.54;100.00;100183.53;5134555;27;20190;-79
2022/10/07 02:23:58;;;;;;;6.20;2.30;;;;;;;7.55;100.00;100183.47;5134528;27;20190;-80
2022/10/07 02:26:30;;;;;;;3.90;2.00;;;;;;;7.62;100.00;100186.72;5125938;27;20218;-79
2022/10/07 02:29:04;;;;;;;4.37;2.10;;;;;;;7.68;100.00;100182.09;5128849;27;20226;-78
2022/10/07 02:31:35;;;;;;;6.13;2.60;;;;;;;7.46;100.00;100174.09;5126600;27;20198;-80
2022/10/07 02:34:06;;;;;;;6.93;2.37;;;;;;;7.43;100.00;100168.94;5115591;28;20195;-79
2022/10/07 02:36:38;;;;;;;7.63;2.27;;;;;;;7.20;100.00;100173.28;5118516;27;20195;-79
2022/10/07 02:39:07;;;;;;;4.97;2.03;;;;;;;7.23;100.00;100168.75;5112299;28;20248;-81
2022/10/07 02:41:43;;;;;;;3.27;1.73;;;;;;;7.22;100.00;100176.72;5116268;27;20219;-81
2022/10/07 02:44:24;;;;;;;4.23;2.10;;;;;;;7.23;100.00;100170.53;5113272;28;20243;-81
2022/10/07 02:46:59;;;;;;;6.67;2.20;;;;;;;6.96;100.00;100170.56;5112015;28;20244;-81
2022/10/07 02:49:30;;;;;;;6.47;2.60;;;;;;;7.07;100.00;100175.47;5094217;28;20218;-81
2022/10/07 02:52:04;;;;;;;4.47;2.23;;;;;;;7.08;100.00;100174.56;5107955;28;20248;-81
2022/10/07 02:54:37;;;;;;;7.17;2.60;;;;;;;7.07;100.00;100175.47;5113316;28;20187;-81
2022/10/07 02:57:07;;;;;;;7.63;2.40;;;;;;;6.96;100.00;100159.16;5114008;28;20339;-81
2022/10/07 02:59:39;;;;;;;7.37;2.40;;;;;;;6.96;100.00;100164.44;5112946;28;20191;-81
2022/10/07 03:02:14;;;;;;;4.90;2.30;;;;;;;7.01;100.00;100168.63;5115371;28;20198;-82
2022/10/07 03:04:45;;;;;;;8.27;2.27;;;;;;;7.07;100.00;100159.66;5113250;28;20199;-80
2022/10/07 03:07:16;;;;;;;4.30;2.10;;;;;;;6.87;100.00;100158.53;5115093;27;20257;-80
2022/10/07 03:09:45;;;;;;;7.30;1.97;;;;;;;6.94;100.00;100151.28;5105903;28;20242;-80
2022/10/07 03:12:15;;;;;;;11.67;4.50;;;;;;;6.81;100.00;100148.19;5112035;28;20191;-81
2022/10/07 03:14:48;;;;;;;17.03;6.07;;;;;;;6.92;100.00;100147.84;5114854;28;20187;-81
2022/10/07 03:17:18;;;;;;;9.37;5.00;;;;;;;6.89;100.00;100146.19;5049704;28;20224;-81
2022/10/07 03:19:48;;;;;;;11.97;5.57;;;;;;;6.95;100.00;100154.78;5051200;28;20208;-81
2022/10/07 03:22:20;;;;;;;8.77;3.20;;;;;;;6.82;100.00;100149.91;5049672;28;20196;-80
2022/10/07 03:24:49;;;;;;;11.27;5.40;;;;;;;6.62;100.00;100149.72;5051204;28;20247;-81
2022/10/07 03:27:17;;;;;;;8.57;3.70;;;;;;;6.63;100.00;100142.66;5049437;28;20189;-81
2022/10/07 03:29:47;;;;;;;6.97;3.13;;;;;;;6.65;100.00;100140.84;5042768;28;20221;-80
2022/10/07 03:32:16;;;;;;;6.40;2.77;;;;;;;6.72;100.00;100145.88;5009761;28;20190;-81
2022/10/07 03:34:44;;;;;;;5.50;2.30;;;;;;;6.76;100.00;100141.38;5024792;28;20215;-81
2022/10/07 03:37:12;;;;;;;5.17;2.43;;;;;;;6.46;100.00;100136.16;5084481;28;20219;-81
2022/10/07 03:39:41;;;;;;;6.10;2.23;;;;;;;6.51;100.00;100139.53;5085924;28;20202;-81
2022/10/07 03:42:11;;;;;;;8.77;2.40;;;;;;;6.53;100.00;100136.84;5086777;28;20219;-81
2022/10/07 03:44:39;;;;;;;8.57;2.37;;;;;;;6.64;100.00;100128.59;5083900;28;20184;-81
2022/10/07 03:47:09;;;;;;;6.87;2.80;;;;;;;6.61;100.00;100140.09;5083699;28;20195;-81
2022/10/07 03:49:40;;;;;;;6.97;2.50;;;;;;;6.73;100.00;100128.28;5091013;28;20197;-80
2022/10/07 03:52:08;;;;;;;5.50;2.90;;;;;;;6.53;100.00;100127.16;5110816;28;20191;-80
2022/10/07 03:54:37;;;;;;;4.30;2.70;;;;;;;6.35;100.00;100134.78;5115124;28;20210;-81
2022/10/07 03:57:48;;;;;;;6.30;2.50;;;;;;;6.25;100.00;100137.69;5104637;28;20260;-81
2022/10/07 03:59:54;;;;;;;7.23;3.27;;;;;;;6.35;100.00;100132.16;5114230;28;20195;-81
2022/10/07 04:02:24;;;;;;;4.23;2.60;;;;;;;6.25;100.00;100136.84;5111942;28;20206;-81
2022/10/07 04:04:53;;;;;;;10.20;3.07;;;;;;;6.14;100.00;100129.28;5113989;28;20255;-80
2022/10/07 04:07:21;;;;;;;4.93;2.40;;;;;;;6.17;100.00;100126.53;5114064;28;20194;-81
2022/10/07 04:09:50;;;;;;;7.60;2.90;;;;;;;6.23;100.00;100134.25;5110248;28;20211;-81
2022/10/07 04:12:21;;;;;;;3.30;2.30;;;;;;;6.25;100.00;100126.31;5111276;28;20219;-81
2022/10/07 04:14:50;;;;;;;6.77;2.27;;;;;;;6.09;100.00;100119.81;5114068;28;20236;-80
2022/10/07 04:17:19;;;;;;;4.90;2.47;;;;;;;6.16;100.00;100121.31;5105314;28;20195;-80
2022/10/07 04:19:49;;;;;;;5.20;2.47;;;;;;;6.19;100.00;100129.16;5105199;28;20220;-80
2022/10/07 04:22:17;;;;;;;8.83;3.73;;;;;;;6.17;100.00;100123.91;5095664;28;20641;-80
2022/10/07 04:25:32;;;;;;;7.50;2.90;;;;;;;6.08;100.00;100120.69;5109878;28;20195;-81
2022/10/07 04:27:34;;;;;;;5.90;3.37;;;;;;;6.21;100.00;100125.56;5116344;27;20207;-80
2022/10/07 04:30:18;;;;;;;11.73;3.30;;;;;;;6.35;100.00;100121.63;5112473;28;20782;-80
2022/10/07 04:32:49;;;;;;;5.73;3.00;;;;;;;6.13;100.00;100114.41;5108507;28;20240;-80
2022/10/07 04:35:20;;;;;;;5.97;2.87;;;;;;;6.00;100.00;100120.94;5092219;28;20226;-80
2022/10/07 04:37:50;;;;;;;8.47;3.40;;;;;;;6.08;100.00;100116.31;5113460;28;20191;-80
2022/10/07 04:40:20;;;;;;;10.03;3.07;;;;;;;5.96;100.00;100114.03;5110488;28;20683;-80
2022/10/07 04:45:36;;;;;;;4.80;2.87;;;;;;;6.01;100.00;100112.16;5111974;28;20248;-80
2022/10/07 04:48:06;;;;;;;10.37;5.00;;;;;;;5.89;100.00;100112.50;5113476;28;20203;-80
2022/10/07 04:50:40;;;;;;;7.87;5.20;;;;;;;5.92;100.00;100108.03;5110655;28;20290;-80
2022/10/07 04:53:13;;;;;;;10.47;5.30;;;;;;;5.93;100.00;100104.47;5113613;28;20703;-80
2022/10/07 04:55:44;;;;;;;7.13;4.30;;;;;;;6.03;100.00;100105.06;5109094;28;20187;-80
2022/10/07 04:58:13;;;;;;;8.70;4.50;;;;;;;6.10;100.00;100111.88;5114267;27;20194;-80
2022/10/07 05:00:43;;;;;;;9.30;5.20;;;;;;;6.09;100.00;100110.16;5113643;28;20211;-80
2022/10/07 05:03:12;;;;;;;13.20;8.10;;;;;;;6.09;100.00;100099.63;5114823;27;20187;-80
2022/10/07 05:05:43;;;;;;;9.77;5.80;;;;;;;6.12;100.00;100094.28;5107148;28;20203;-80
2022/10/07 05:08:13;;;;;;;10.87;5.77;;;;;;;5.94;100.00;100097.44;5088238;28;20195;-80
2022/10/07 05:10:43;;;;;;;8.20;5.40;;;;;;;6.02;100.00;100088.44;5089936;28;20211;-80
2022/10/07 05:13:16;;;;;;;8.30;4.13;;;;;;;5.91;100.00;100092.28;5091238;28;20217;-80
2022/10/07 05:15:51;;;;;;;5.80;3.37;;;;;;;5.83;100.00;100091.63;5084042;28;20253;-80
2022/10/07 05:18:21;;;;;;;4.37;2.93;;;;;;;5.79;100.00;100092.59;5088214;28;20203;-80
2022/10/07 05:20:51;;;;;;;3.57;2.70;;;;;;;5.74;100.00;100091.00;5100384;28;20188;-79
2022/10/07 05:23:22;;;;;;;5.97;3.43;;;;;;;5.77;100.00;100097.06;5097776;28;20242;-80
2022/10/07 05:26:00;;;;;;;9.30;3.53;;;;;;;5.79;100.00;100077.72;5103990;28;20297;-79
2022/10/07 05:28:30;;;;;;;7.57;3.37;;;;;;;5.71;100.00;100087.59;5114891;28;20198;-79
2022/10/07 05:31:04;;;;;;;7.73;3.70;;;;;;;5.82;100.00;100082.03;5113810;28;20225;-80
2022/10/07 05:33:33;;;;;;;7.17;3.30;;;;;;;5.95;100.00;100081.63;5119293;27;20199;-80
2022/10/07 05:36:03;;;;;;;8.13;3.53;;;;;;;5.75;100.00;100084.81;5116759;27;20248;-79
2022/10/07 05:38:32;;;;;;;8.10;3.37;;;;;;;5.67;100.00;100083.31;5116796;28;20194;-80
2022/10/07 05:41:02;;;;;;;6.20;3.13;;;;;;;5.60;100.00;100077.41;5088620;28;20226;-80
2022/10/07 05:43:33;;;;;;;6.40;3.10;;;;;;;5.66;100.00;100081.59;5094755;28;20254;-80
2022/10/07 05:46:02;;;;;;;6.17;3.60;;;;;;;5.63;100.00;100081.69;5091148;28;20257;-80
2022/10/07 05:48:34;;;;;;;7.30;3.87;;;;;;;5.55;100.00;100081.91;5094803;28;20611;-80
2022/10/07 05:51:08;;;;;;;5.70;3.50;;;;;;;5.58;100.00;100073.06;5093441;28;20716;-80
2022/10/07 05:53:39;;;;;;;16.73;3.80;;;;;;;5.30;100.00;100063.34;5095078;28;20203;-80
2022/10/07 05:56:11;;;;;;;9.70;4.13;;;;;;;5.07;100.00;100065.75;5088047;28;20192;-80
2022/10/07 05:58:40;;;;;;;7.50;3.57;;;;;;;5.17;100.00;100072.47;5095175;28;20199;-80
2022/10/07 06:01:14;;;;;;;32.43;4.93;;;;;;;5.15;100.00;100074.28;5110797;28;20309;-80
2022/10/07 06:03:43;;;;;;;16.23;3.63;;;;;;;5.21;100.00;100081.13;5113325;28;20193;-80
2022/10/07 06:06:14;;;;;;;7.73;3.63;;;;;;;5.13;100.00;100076.97;5116635;27;20230;-80
2022/10/07 06:08:42;;;;;;;6.20;4.00;;;;;;;4.98;100.00;100064.22;5116327;27;20191;-80
2022/10/07 06:13:58;;;;;;;6.93;3.37;;;;;;;5.18;100.00;100077.69;5117462;28;20220;-80
2022/10/07 06:16:27;;;;;;;5.03;3.70;;;;;;;5.23;100.00;100071.47;5119654;27;20225;-80
2022/10/07 06:18:56;;;;;;;10.40;3.90;;;;;;;5.33;100.00;100065.03;5117356;27;20183;-80
2022/10/07 06:21:26;;;;;;;9.17;4.30;;;;;;;5.46;100.00;100072.53;5116678;28;20192;-80
2022/10/07 06:23:56;;;;;;;5.33;3.57;;;;;;;5.35;100.00;100069.34;5116593;28;20222;-80
2022/10/07 06:26:26;;;;;;;5.83;3.53;;;;;;;5.40;100.00;100077.06;5114095;27;20195;-80
2022/10/07 06:28:54;;;;;;;5.87;3.60;;;;;;;5.50;100.00;100077.69;5109531;28;20250;-80
2022/10/07 06:31:24;;;;;;;6.67;3.63;;;;;;;5.44;100.00;100084.00;5113170;28;20215;-80
2022/10/07 06:33:53;;;;;;;11.30;5.17;;;;;;;5.43;100.00;100084.91;5112371;28;20226;-80
2022/10/07 06:36:21;;;;;;;8.20;4.90;;;;;;;5.55;100.00;100084.53;5110681;28;20198;-80
2022/10/07 06:38:54;;;;;;;6.23;3.83;;;;;;;5.44;100.00;100081.34;5111281;28;20277;-80
2022/10/07 06:41:23;;;;;;;4.93;3.70;;;;;;;5.42;100.00;100081.41;5129828;27;20194;-80
2022/10/07 06:43:55;;;;;;;5.03;3.70;;;;;;;5.46;100.00;100082.16;5134288;27;20186;-79
2022/10/07 06:46:24;;;;;;;5.33;3.80;;;;;;;5.29;100.00;100074.75;5128822;27;20202;-80
2022/10/07 06:48:52;;;;;;;6.50;3.60;;;;;;;5.57;100.00;100079.22;5134334;27;20187;-80
2022/10/07 06:51:22;;;;;;;5.90;4.20;;;;;;;5.56;100.00;100077.53;5126279;27;20202;-80
2022/10/07 06:53:56;;;;;;;4.50;3.63;;;;;;;5.60;100.00;100082.66;5128916;27;20186;-80
2022/10/07 06:56:25;;;;;;;7.07;3.73;;;;;;;5.81;100.00;100077.69;5132720;27;20209;-80
2022/10/07 06:58:54;;;;;;;7.67;3.87;;;;;;;5.95;100.00;100079.00;5124000;27;20263;-80
2022/10/07 07:01:24;;;;;;;5.90;4.03;;;;;;;5.99;100.00;100088.53;5127648;27;20186;-80
2022/10/07 07:03:54;;;;;;;8.10;4.53;;;;;;;5.92;100.00;100080.88;5127210;27;20223;-80
2022/10/07 07:06:23;;;;;;;5.40;4.23;;;;;;;5.99;100.00;100074.53;5116294;27;20202;-80
2022/10/07 07:08:57;;;;;;;6.40;4.40;;;;;;;6.26;100.00;100089.44;5113448;28;20249;-80
2022/10/07 07:11:40;;;;;;;6.27;4.27;;;;;;;6.38;100.00;100080.31;5112340;28;20186;-80
2022/10/07 07:14:10;;;;;;;6.23;4.20;;;;;;;6.45;100.00;100079.19;5114372;28;20194;-80
2022/10/07 07:16:38;;;;;;;6.17;4.30;;;;;;;6.53;100.00;100087.69;5109353;28;20190;-80
2022/10/07 07:19:08;;;;;;;6.60;4.70;;;;;;;6.56;100.00;100079.72;5072959;28;20200;-80
2022/10/07 07:21:39;;;;;;;8.53;4.50;;;;;;;6.62;100.00;100069.88;5069795;28;20352;-80
2022/10/07 07:24:10;;;;;;;7.63;5.10;;;;;;;6.56;100.00;100076.19;5072448;28;20298;-80
2022/10/07 07:26:39;;;;;;;6.23;4.77;;;;;;;6.84;100.00;100081.41;5068307;28;20196;-80
2022/10/07 07:29:07;;;;;;;9.30;4.87;;;;;;;6.89;100.00;100075.06;5070065;28;20242;-80
2022/10/07 07:31:39;;;;;;;9.93;4.80;;;;;;;7.07;100.00;100078.84;5064824;28;20801;-80
2022/10/07 07:34:11;;;;;;;9.17;4.83;;;;;;;7.19;100.00;100072.28;5066359;28;20192;-80
2022/10/07 07:36:44;;;;;;;8.03;4.60;;;;;;;7.21;100.00;100083.63;5081765;28;20199;-80
2022/10/07 07:39:16;;;;;;;6.53;4.37;;;;;;;7.42;100.00;100071.44;5109644;28;20199;-81
2022/10/07 07:41:46;;;;;;;9.00;4.27;;;;;;;7.59;100.00;100065.56;5108990;28;20226;-81
2022/10/07 07:44:17;;;;;;;8.83;4.73;;;;;;;7.55;100.00;100059.56;5110578;28;20282;-80
2022/10/07 07:46:51;;;;;;;11.17;5.10;;;;;;;7.69;100.00;100064.31;5111651;28;20718;-80
2022/10/07 07:49:20;;;;;;;6.07;4.37;;;;;;;7.84;100.00;100057.59;5114166;28;20183;-80
2022/10/07 07:51:50;;;;;;;8.20;4.70;;;;;;;7.84;100.00;100050.56;5117087;27;20190;-80
2022/10/07 07:54:20;;;;;;;7.30;4.40;;;;;;;8.00;100.00;100058.72;5112967;28;20195;-80
2022/10/07 07:56:49;;;;;;;7.67;5.17;;;;;;;8.30;100.00;100057.53;5112808;28;20191;-80
2022/10/07 07:59:17;;;;;;;8.50;4.33;;;;;;;8.51;100.00;100062.88;5114214;28;20187;-80
2022/10/07 08:01:46;;;;;;;9.30;4.23;;;;;;;8.67;100.00;100055.16;5113943;28;20197;-80
2022/10/07 08:04:15;;;;;;;6.17;4.70;;;;;;;8.67;100.00;100052.53;5110216;28;20256;-81
2022/10/07 08:06:43;;;;;;;7.70;4.10;;;;;;;8.88;100.00;100052.50;5111639;28;20187;-80
2022/10/07 08:09:11;;;;;;;5.90;4.03;;;;;;;9.09;100.00;100052.50;5106282;28;20199;-81
2022/10/07 08:11:44;;;;;;;7.60;3.57;;;;;;;9.24;100.00;100045.66;5103251;28;20226;-80
2022/10/07 08:14:13;;;;;;;7.33;4.20;;;;;;;9.44;100.00;100037.69;5113929;28;20226;-81
2022/10/07 08:16:42;;;;;;;8.50;4.47;;;;;;;9.59;100.00;100042.31;5105852;28;20198;-79
2022/10/07 08:19:11;;;;;;;9.13;4.00;;;;;;;9.71;100.00;100038.22;5114067;27;20191;-80
2022/10/07 08:21:39;;;;;;;6.77;4.17;;;;;;;9.68;100.00;100035.75;5113548;28;20222;-80
2022/10/07 08:24:13;;;;;;;10.20;3.90;;;;;;;9.82;100.00;100029.78;5105183;28;20202;-80
2022/10/07 08:26:43;;;;;;;11.77;3.87;;;;;;;10.14;100.00;100026.50;5106283;28;20199;-80
2022/10/07 08:29:12;;;;;;;11.50;4.17;;;;;;;10.17;100.00;100021.03;5113893;28;20244;-80
2022/10/07 08:31:41;;;;;;;10.27;4.30;;;;;;;10.26;100.00;100022.41;5113049;28;20187;-81
2022/10/07 08:34:11;;;;;;;10.30;5.00;;;;;;;10.52;100.00;100013.19;5112032;28;20355;-81
2022/10/07 08:36:39;;;;;;;8.60;4.47;;;;;;;10.46;100.00;100010.84;5114217;28;20187;-81
2022/10/07 08:39:08;;;;;;;10.83;4.47;;;;;;;10.49;100.00;100014.19;5114719;28;20707;-82
2022/10/07 08:41:56;;;;;;;8.83;4.73;;;;;;;10.32;100.00;100001.75;5110212;28;20219;-80
2022/10/07 08:44:28;;;;;;;8.87;4.60;;;;;;;10.68;100.00;99998.22;5110842;28;20195;-81
2022/10/07 08:47:02;;;;;;;9.60;4.53;;;;;;;10.74;100.00;99997.06;5095410;28;20240;-81
2022/10/07 08:49:39;;;;;;;12.90;4.10;;;;;;;10.89;100.00;99994.47;5089623;28;20191;-81
2022/10/07 08:52:27;;;;;;;9.10;4.17;;;;;;;11.27;100.00;99988.09;5088722;28;20264;-81
2022/10/07 08:54:55;;;;;;;11.20;4.50;;;;;;;11.55;100.00;99988.31;5087107;28;20208;-80
2022/10/07 08:57:37;;;;;;;8.13;4.23;;;;;;;11.95;100.00;99979.00;5088703;28;20196;-81
2022/10/07 09:00:08;;;;;;;8.27;4.90;;;;;;;11.95;100.00;99975.50;5088015;28;20195;-81
2022/10/07 09:02:47;;;;;;;10.20;4.43;;;;;;;11.84;100.00;99965.50;5089254;28;20630;-81
2022/10/07 09:05:22;;;;;;;13.43;4.57;;;;;;;11.96;100.00;99963.94;5092750;28;20266;-81
2022/10/07 09:07:54;;;;;;;11.40;3.97;;;;;;;11.89;100.00;99965.25;5103660;28;20190;-81
2022/10/07 09:10:30;;;;;;;13.47;4.93;;;;;;;12.25;100.00;99956.94;5115585;28;20703;-81
2022/10/07 09:13:06;;;;;;;8.17;4.03;;;;;;;12.76;100.00;99958.34;5076896;28;20214;-80
2022/10/07 09:15:41;;;;;;;7.87;3.93;;;;;;;12.86;100.00;99954.19;5117180;28;20202;-81
2022/10/07 09:18:20;;;;;;;7.23;3.97;;;;;;;13.25;100.00;99951.88;5115658;28;20199;-81
2022/10/07 09:20:53;;;;;;;6.37;3.67;;;;;;;13.65;100.00;99951.06;5117182;28;20183;-81
2022/10/07 09:23:24;;;;;;;6.03;3.67;;;;;;;13.52;100.00;99941.31;5119962;27;20199;-81
2022/10/07 09:25:54;;;;;;;13.70;4.03;;;;;;;13.39;100.00;99949.19;5112366;28;20722;-81
2022/10/07 09:28:28;;;;;;;7.33;3.43;;;;;;;13.81;100.00;99944.75;5112869;28;20259;-81
2022/10/07 09:30:59;;;;;;;5.17;3.67;;;;;;;14.02;100.00;99940.69;5119989;27;20262;-81
2022/10/07 09:33:29;;;;;;;9.17;3.50;;;;;;;14.50;100.00;99927.75;5117516;28;20875;-82
2022/10/07 09:36:05;;;;;;;9.07;3.90;;;;;;;14.26;100.00;99920.41;5117271;28;20187;-81
2022/10/07 09:38:37;;;;;;;7.63;4.00;;;;;;;14.39;100.00;99916.94;5116295;27;20190;-81
2022/10/07 09:41:16;;;;;;;8.87;3.97;;;;;;;14.73;100.00;99923.50;5115173;27;20199;-81
2022/10/07 09:43:57;;;;;;;6.43;3.70;;;;;;;14.56;100.00;99921.97;5111103;28;20190;-81
2022/10/07 09:46:34;;;;;;;8.27;4.10;;;;;;;14.94;100.00;99916.66;5111237;28;20195;-81
2022/10/07 09:49:04;;;;;;;7.87;4.33;;;;;;;15.24;100.00;99916.31;5116528;27;20216;-81
2022/10/07 09:51:34;;;;;;;9.00;4.37;;;;;;;15.21;100.00;99905.03;5117087;28;20194;-81
2022/10/07 09:54:05;;;;;;;6.53;3.50;;;;;;;15.70;100.00;99902.38;5114467;28;20268;-81
2022/10/07 09:56:39;;;;;;;8.67;3.80;;;;;;;15.81;100.00;99893.56;5113776;28;20202;-81
2022/10/07 09:59:18;;;;;;;10.57;3.57;;;;;;;16.27;100.00;99881.13;5098529;28;20199;-81
2022/10/07 10:01:53;;;;;;;5.43;3.30;;;;;;;16.58;100.00;99882.31;5111207;28;20187;-81
2022/10/07 10:04:28;;;;;;;6.00;3.60;;;;;;;16.61;100.00;99889.25;5113749;28;20201;-81
2022/10/07 10:07:03;;;;;;;5.37;3.00;;;;;;;17.10;100.00;99888.13;5107733;28;20198;-82
2022/10/07 10:09:34;;;;;;;6.47;3.00;;;;;;;16.89;100.00;99890.69;5108468;28;20248;-81
2022/10/07 10:12:12;;;;;;;7.77;3.30;;;;;;;17.16;100.00;99890.28;5113004;28;20272;-81
2022/10/07 10:14:50;;;;;;;5.30;2.90;;;;;;;17.35;100.00;99879.81;5110876;28;20210;-81
2022/10/07 10:17:30;;;;;;;5.43;2.90;;;;;;;16.93;100.00;99885.91;5116231;28;20275;-81
2022/10/07 10:20:30;;;;;;;4.77;2.80;;;;;;;17.32;100.00;99876.53;5108193;28;20684;-81
2022/10/07 10:23:00;;;;;;;6.83;2.80;;;;;;;17.67;100.00;99879.91;5116236;28;20187;-81
2022/10/07 10:28:43;;;;;;;9.10;2.57;;;;;;;17.59;100.00;99865.44;5076009;28;20220;-81
2022/10/07 10:31:24;;;;;;;3.80;2.30;;;;;;;18.02;100.00;99866.28;4955436;28;20204;-81
2022/10/07 10:34:00;;;;;;;7.37;2.80;;;;;;;17.67;100.00;99866.50;4953852;29;20220;-81
2022/10/07 10:36:32;;;;;;;8.83;3.27;;;;;;;17.80;100.00;99847.59;4954040;28;20203;-81
2022/10/07 10:39:04;;;;;;;8.53;2.40;;;;;;;18.35;100.00;99853.72;4950970;28;20248;-81
2022/10/07 10:41:42;;;;;;;5.87;1.77;;;;;;;18.81;100.00;99852.44;4946419;28;20224;-82
2022/10/07 10:44:32;;;;;;;6.30;1.80;;;;;;;18.77;100.00;99848.34;4951756;28;20211;-82
2022/10/07 10:47:14;;;;;;;3.27;1.53;;;;;;;18.89;95.17;99841.88;4948215;28;20233;-81
2022/10/07 10:49:59;;;;;;;5.27;1.60;;;;;;;19.12;93.94;99831.81;4857341;29;20192;-82
2022/10/07 10:52:38;;;;;;;6.97;1.40;;;;;;;18.97;89.91;99835.84;4875953;29;20207;-82
2022/10/07 10:55:22;;;;;;;5.43;1.83;;;;;;;19.09;87.27;99824.00;4896570;29;20222;-81
2022/10/07 10:58:02;;;;;;;4.23;1.43;;;;;;;18.89;88.71;99820.41;4871441;29;20215;-82
2022/10/07 11:00:39;;;;;;;6.37;1.80;;;;;;;18.90;88.00;99821.25;4811032;29;20200;-82
2022/10/07 11:03:39;;;;;;;7.97;1.60;;;;;;;18.19;93.34;99813.91;4891978;29;20262;-82
2022/10/07 11:06:15;;;;;;;5.00;1.70;;;;;;;18.85;89.60;99809.09;4895874;29;20288;-82
2022/10/07 11:08:46;;;;;;;3.60;1.30;;;;;;;19.35;89.46;99802.88;4994199;28;20221;-82
2022/10/07 11:11:19;;;;;;;4.80;1.60;;;;;;;19.32;86.39;99795.13;5006241;28;20285;-82
2022/10/07 11:13:53;;;;;;;10.40;1.67;;;;;;;19.75;83.47;99800.13;5007478;28;20237;-82
2022/10/07 11:16:26;;;;;;;3.87;1.80;;;;;;;19.71;78.88;99790.69;5032631;28;20698;-82
2022/10/07 11:19:01;;;;;;;4.90;1.30;;;;;;;19.93;80.06;99779.63;5078755;28;20290;-82
2022/10/07 11:21:38;;;;;;;5.77;1.63;;;;;;;20.00;77.48;99782.59;5113979;28;20193;-81
2022/10/07 11:24:14;;;;;;;7.07;1.70;;;;;;;19.94;77.31;99778.63;5113753;28;20195;-81
2022/10/07 11:26:50;;;;;;;4.30;1.30;;;;;;;20.07;73.82;99772.09;5111309;28;20565;-82
2022/10/07 11:29:28;;;;;;;5.57;1.50;;;;;;;19.41;74.89;99770.97;5114630;28;20191;-81
2022/10/07 11:32:05;;;;;;;8.33;1.70;;;;;;;18.39;86.66;99766.59;5125698;27;20271;-81
2022/10/07 11:34:44;;;;;;;4.27;1.70;;;;;;;19.31;81.71;99769.25;5027510;28;20217;-81
2022/10/07 11:37:25;;;;;;;4.90;1.70;;;;;;;19.74;80.76;99755.44;5030727;28;20221;-81
2022/10/07 11:39:54;;;;;;;4.90;1.33;;;;;;;20.17;76.08;99759.47;5028437;28;20189;-81
2022/10/07 11:42:26;;;;;;;6.57;1.63;;;;;;;20.59;72.57;99751.91;4991425;28;20351;-82
2022/10/07 11:45:01;;;;;;;4.90;1.50;;;;;;;20.86;69.55;99738.47;4993467;28;20226;-81
2022/10/07 11:47:35;;;;;;;4.83;1.30;;;;;;;20.93;67.12;99737.84;4987706;28;20186;-81
2022/10/07 11:50:09;;;;;;;8.43;1.90;;;;;;;21.14;67.65;99728.53;4908232;29;20201;-81
2022/10/07 11:52:42;;;;;;;6.63;1.60;;;;;;;21.38;68.71;99722.56;4892339;29;20689;-81
2022/10/07 11:55:21;;;;;;;7.73;1.60;;;;;;;19.55;72.10;99725.84;4891919;29;20226;-82
2022/10/07 11:57:54;;;;;;;4.87;1.60;;;;;;;20.83;67.35;99719.03;4892506;29;20239;-81